sensor_id;sensor_type;location;lat;lon;timestamp;temperature;humidity
45229;DHT22;30967;51.728;8.682;2022-11-12T00:00:55;11.10;98.80
45229;DHT22;30967;51.728;8.682;2022-11-12T00:03:21;11.10;98.70
45229;DHT22;30967;51.728;8.682;2022-11-12T00:05:46;11.20;98.70
45229;DHT22;30967;51.728;8.682;2022-11-12T00:08:15;11.20;98.80
45229;DHT22;30967;51.728;8.682;2022-11-12T00:10:41;11.10;98.70
45229;DHT22;30967;51.728;8.682;2022-11-12T00:13:06;11.20;98.70
45229;DHT22;30967;51.728;8.682;2022-11-12T00:15:32;11.20;98.70
45229;DHT22;30967;51.728;8.682;2022-11-12T00:17:57;11.20;98.60
45229;DHT22;30967;51.728;8.682;2022-11-12T00:20:23;11.20;98.70
45229;DHT22;30967;51.728;8.682;2022-11-12T00:22:49;11.10;98.70
45229;DHT22;30967;51.728;8.682;2022-11-12T00:25:14;11.10;98.70
45229;DHT22;30967;51.728;8.682;2022-11-12T00:27:40;11.10;98.70
45229;DHT22;30967;51.728;8.682;2022-11-12T00:30:07;11.00;98.70
45229;DHT22;30967;51.728;8.682;2022-11-12T00:32:35;10.90;98.40
45229;DHT22;30967;51.728;8.682;2022-11-12T00:35:02;10.80;98.30
45229;DHT22;30967;51.728;8.682;2022-11-12T00:37:29;10.70;98.30
45229;DHT22;30967;51.728;8.682;2022-11-12T00:39:54;10.70;98.40
45229;DHT22;30967;51.728;8.682;2022-11-12T00:42:20;10.60;98.40
45229;DHT22;30967;51.728;8.682;2022-11-12T00:44:45;10.60;98.40
45229;DHT22;30967;51.728;8.682;2022-11-12T00:47:11;10.50;98.60
45229;DHT22;30967;51.728;8.682;2022-11-12T00:49:38;10.50;98.70
45229;DHT22;30967;51.728;8.682;2022-11-12T00:52:04;10.50;98.90
45229;DHT22;30967;51.728;8.682;2022-11-12T00:54:29;10.60;99.00
45229;DHT22;30967;51.728;8.682;2022-11-12T00:56:55;10.60;99.00
45229;DHT22;30967;51.728;8.682;2022-11-12T00:59:21;10.60;99.00
45229;DHT22;30967;51.728;8.682;2022-11-12T01:01:46;10.60;99.00
45229;DHT22;30967;51.728;8.682;2022-11-12T01:04:12;10.60;99.00
45229;DHT22;30967;51.728;8.682;2022-11-12T01:06:39;10.60;98.90
45229;DHT22;30967;51.728;8.682;2022-11-12T01:09:08;10.60;98.90
45229;DHT22;30967;51.728;8.682;2022-11-12T01:11:34;10.60;98.80
45229;DHT22;30967;51.728;8.682;2022-11-12T01:14:05;10.60;98.90
45229;DHT22;30967;51.728;8.682;2022-11-12T01:16:39;10.60;99.00
45229;DHT22;30967;51.728;8.682;2022-11-12T01:19:11;10.50;98.90
45229;DHT22;30967;51.728;8.682;2022-11-12T01:21:43;10.60;98.90
45229;DHT22;30967;51.728;8.682;2022-11-12T01:24:11;10.60;98.80
45229;DHT22;30967;51.728;8.682;2022-11-12T01:26:44;10.60;98.80
45229;DHT22;30967;51.728;8.682;2022-11-12T01:29:15;10.60;98.80
45229;DHT22;30967;51.728;8.682;2022-11-12T01:31:41;10.60;98.80
45229;DHT22;30967;51.728;8.682;2022-11-12T01:34:11;10.50;98.80
45229;DHT22;30967;51.728;8.682;2022-11-12T01:36:39;10.60;99.00
45229;DHT22;30967;51.728;8.682;2022-11-12T01:39:09;10.50;98.80
45229;DHT22;30967;51.728;8.682;2022-11-12T01:41:42;10.50;98.90
45229;DHT22;30967;51.728;8.682;2022-11-12T01:49:16;10.50;99.00
45229;DHT22;30967;51.728;8.682;2022-11-12T01:51:47;10.50;98.90
45229;DHT22;30967;51.728;8.682;2022-11-12T01:54:15;10.50;98.80
45229;DHT22;30967;51.728;8.682;2022-11-12T01:56:43;10.50;98.80
45229;DHT22;30967;51.728;8.682;2022-11-12T01:59:32;10.40;98.50
45229;DHT22;30967;51.728;8.682;2022-11-12T02:02:01;10.30;98.40
45229;DHT22;30967;51.728;8.682;2022-11-12T02:04:26;10.20;98.50
45229;DHT22;30967;51.728;8.682;2022-11-12T02:06:54;10.20;98.70
45229;DHT22;30967;51.728;8.682;2022-11-12T02:09:21;10.20;98.90
45229;DHT22;30967;51.728;8.682;2022-11-12T02:11:47;10.20;98.90
45229;DHT22;30967;51.728;8.682;2022-11-12T02:14:13;10.20;98.90
45229;DHT22;30967;51.728;8.682;2022-11-12T02:16:41;10.20;98.90
45229;DHT22;30967;51.728;8.682;2022-11-12T02:19:10;10.30;98.90
45229;DHT22;30967;51.728;8.682;2022-11-12T02:21:37;10.20;98.80
45229;DHT22;30967;51.728;8.682;2022-11-12T02:26:55;10.30;98.70
45229;DHT22;30967;51.728;8.682;2022-11-12T02:29:21;10.30;98.70
45229;DHT22;30967;51.728;8.682;2022-11-12T02:31:47;10.20;98.70
45229;DHT22;30967;51.728;8.682;2022-11-12T02:34:13;10.20;98.90
45229;DHT22;30967;51.728;8.682;2022-11-12T02:36:38;10.20;98.80
45229;DHT22;30967;51.728;8.682;2022-11-12T02:39:04;10.00;98.50
45229;DHT22;30967;51.728;8.682;2022-11-12T02:41:30;9.90;98.30
45229;DHT22;30967;51.728;8.682;2022-11-12T02:44:02;9.80;98.40
45229;DHT22;30967;51.728;8.682;2022-11-12T02:46:28;9.80;98.70
45229;DHT22;30967;51.728;8.682;2022-11-12T02:48:53;9.80;98.70
45229;DHT22;30967;51.728;8.682;2022-11-12T02:51:19;9.70;98.60
45229;DHT22;30967;51.728;8.682;2022-11-12T02:53:45;9.60;98.70
45229;DHT22;30967;51.728;8.682;2022-11-12T02:56:10;9.60;98.80
45229;DHT22;30967;51.728;8.682;2022-11-12T02:58:36;9.60;98.80
45229;DHT22;30967;51.728;8.682;2022-11-12T03:01:01;9.50;98.80
45229;DHT22;30967;51.728;8.682;2022-11-12T03:03:27;9.50;98.90
45229;DHT22;30967;51.728;8.682;2022-11-12T03:05:58;9.50;99.00
45229;DHT22;30967;51.728;8.682;2022-11-12T03:08:24;9.50;99.00
45229;DHT22;30967;51.728;8.682;2022-11-12T03:11:04;9.40;99.00
45229;DHT22;30967;51.728;8.682;2022-11-12T03:13:48;9.40;98.90
45229;DHT22;30967;51.728;8.682;2022-11-12T03:16:42;9.40;98.80
45229;DHT22;30967;51.728;8.682;2022-11-12T03:19:08;9.30;99.00
45229;DHT22;30967;51.728;8.682;2022-11-12T03:21:33;9.30;99.30
45229;DHT22;30967;51.728;8.682;2022-11-12T03:24:00;9.30;99.50
45229;DHT22;30967;51.728;8.682;2022-11-12T03:26:26;9.40;99.60
45229;DHT22;30967;51.728;8.682;2022-11-12T03:28:51;9.40;99.70
45229;DHT22;30967;51.728;8.682;2022-11-12T03:31:17;9.40;99.70
45229;DHT22;30967;51.728;8.682;2022-11-12T03:33:43;9.30;99.70
45229;DHT22;30967;51.728;8.682;2022-11-12T03:36:08;9.40;99.70
45229;DHT22;30967;51.728;8.682;2022-11-12T03:38:34;9.40;99.70
45229;DHT22;30967;51.728;8.682;2022-11-12T03:40:59;9.40;99.70
45229;DHT22;30967;51.728;8.682;2022-11-12T03:43:26;9.30;99.60
45229;DHT22;30967;51.728;8.682;2022-11-12T03:45:52;9.30;99.60
45229;DHT22;30967;51.728;8.682;2022-11-12T03:48:18;9.40;99.60
45229;DHT22;30967;51.728;8.682;2022-11-12T03:50:44;9.40;99.70
45229;DHT22;30967;51.728;8.682;2022-11-12T03:53:11;9.40;99.70
45229;DHT22;30967;51.728;8.682;2022-11-12T03:55:36;9.40;99.70
45229;DHT22;30967;51.728;8.682;2022-11-12T03:58:02;9.40;99.70
45229;DHT22;30967;51.728;8.682;2022-11-12T04:00:28;9.30;99.70
45229;DHT22;30967;51.728;8.682;2022-11-12T04:02:55;9.30;99.70
45229;DHT22;30967;51.728;8.682;2022-11-12T04:05:22;9.30;99.70
45229;DHT22;30967;51.728;8.682;2022-11-12T04:08:19;9.20;99.80
45229;DHT22;30967;51.728;8.682;2022-11-12T04:11:11;9.30;99.80
45229;DHT22;30967;51.728;8.682;2022-11-12T04:13:43;9.30;99.90
45229;DHT22;30967;51.728;8.682;2022-11-12T04:16:17;9.20;99.90
45229;DHT22;30967;51.728;8.682;2022-11-12T04:19:03;9.20;99.90
45229;DHT22;30967;51.728;8.682;2022-11-12T04:21:54;9.20;99.90
45229;DHT22;30967;51.728;8.682;2022-11-12T04:27:20;9.20;99.70
45229;DHT22;30967;51.728;8.682;2022-11-12T04:29:47;9.20;99.80
45229;DHT22;30967;51.728;8.682;2022-11-12T04:32:36;9.20;99.80
45229;DHT22;30967;51.728;8.682;2022-11-12T04:35:02;9.20;99.80
45229;DHT22;30967;51.728;8.682;2022-11-12T04:37:31;9.20;99.80
45229;DHT22;30967;51.728;8.682;2022-11-12T04:40:13;9.20;99.80
45229;DHT22;30967;51.728;8.682;2022-11-12T04:42:59;9.20;99.80
45229;DHT22;30967;51.728;8.682;2022-11-12T04:45:45;9.10;99.80
45229;DHT22;30967;51.728;8.682;2022-11-12T04:48:12;9.10;99.80
45229;DHT22;30967;51.728;8.682;2022-11-12T04:50:38;9.10;99.80
45229;DHT22;30967;51.728;8.682;2022-11-12T04:53:04;9.10;99.80
45229;DHT22;30967;51.728;8.682;2022-11-12T04:55:31;9.10;99.80
45229;DHT22;30967;51.728;8.682;2022-11-12T04:57:56;9.10;99.80
45229;DHT22;30967;51.728;8.682;2022-11-12T05:00:22;9.00;99.80
45229;DHT22;30967;51.728;8.682;2022-11-12T05:02:51;9.00;99.80
45229;DHT22;30967;51.728;8.682;2022-11-12T05:05:16;9.00;99.80
45229;DHT22;30967;51.728;8.682;2022-11-12T05:07:42;9.00;99.80
45229;DHT22;30967;51.728;8.682;2022-11-12T05:10:08;9.00;99.80
45229;DHT22;30967;51.728;8.682;2022-11-12T05:12:34;9.00;99.80
45229;DHT22;30967;51.728;8.682;2022-11-12T05:15:00;9.00;99.90
45229;DHT22;30967;51.728;8.682;2022-11-12T05:17:26;9.00;99.90
45229;DHT22;30967;51.728;8.682;2022-11-12T05:19:52;9.00;99.90
45229;DHT22;30967;51.728;8.682;2022-11-12T05:22:17;9.00;99.80
45229;DHT22;30967;51.728;8.682;2022-11-12T05:24:43;9.00;99.70
45229;DHT22;30967;51.728;8.682;2022-11-12T05:27:15;9.00;99.70
45229;DHT22;30967;51.728;8.682;2022-11-12T05:29:41;9.00;99.70
45229;DHT22;30967;51.728;8.682;2022-11-12T05:32:08;9.00;99.60
45229;DHT22;30967;51.728;8.682;2022-11-12T05:34:34;9.00;99.60
45229;DHT22;30967;51.728;8.682;2022-11-12T05:37:01;9.00;99.60
45229;DHT22;30967;51.728;8.682;2022-11-12T05:39:27;9.00;99.50
45229;DHT22;30967;51.728;8.682;2022-11-12T05:41:53;9.00;99.50
45229;DHT22;30967;51.728;8.682;2022-11-12T05:44:19;9.00;99.50
45229;DHT22;30967;51.728;8.682;2022-11-12T05:46:45;9.00;99.50
45229;DHT22;30967;51.728;8.682;2022-11-12T05:49:11;9.00;99.50
45229;DHT22;30967;51.728;8.682;2022-11-12T05:51:37;9.00;99.50
45229;DHT22;30967;51.728;8.682;2022-11-12T05:54:03;9.00;99.60
45229;DHT22;30967;51.728;8.682;2022-11-12T05:56:28;9.00;99.60
45229;DHT22;30967;51.728;8.682;2022-11-12T05:58:54;9.00;99.60
45229;DHT22;30967;51.728;8.682;2022-11-12T06:01:21;9.00;99.60
45229;DHT22;30967;51.728;8.682;2022-11-12T06:03:47;9.00;99.60
45229;DHT22;30967;51.728;8.682;2022-11-12T06:06:12;9.10;99.50
45229;DHT22;30967;51.728;8.682;2022-11-12T06:08:39;9.00;99.40
45229;DHT22;30967;51.728;8.682;2022-11-12T06:11:04;9.00;99.40
45229;DHT22;30967;51.728;8.682;2022-11-12T06:13:30;9.10;99.40
45229;DHT22;30967;51.728;8.682;2022-11-12T06:15:56;9.00;99.40
45229;DHT22;30967;51.728;8.682;2022-11-12T06:18:24;9.00;99.50
45229;DHT22;30967;51.728;8.682;2022-11-12T06:20:50;8.90;99.50
45229;DHT22;30967;51.728;8.682;2022-11-12T06:23:34;8.90;99.40
45229;DHT22;30967;51.728;8.682;2022-11-12T06:26:00;8.80;99.50
45229;DHT22;30967;51.728;8.682;2022-11-12T06:28:26;8.80;99.60
45229;DHT22;30967;51.728;8.682;2022-11-12T06:30:52;8.70;99.60
45229;DHT22;30967;51.728;8.682;2022-11-12T06:33:17;8.70;99.70
45229;DHT22;30967;51.728;8.682;2022-11-12T06:35:44;8.70;99.80
45229;DHT22;30967;51.728;8.682;2022-11-12T06:38:09;8.70;99.90
45229;DHT22;30967;51.728;8.682;2022-11-12T06:40:35;8.70;99.90
45229;DHT22;30967;51.728;8.682;2022-11-12T06:43:02;8.70;99.90
45229;DHT22;30967;51.728;8.682;2022-11-12T06:45:28;8.80;99.90
45229;DHT22;30967;51.728;8.682;2022-11-12T06:47:57;8.80;99.90
45229;DHT22;30967;51.728;8.682;2022-11-12T06:50:23;8.80;99.90
45229;DHT22;30967;51.728;8.682;2022-11-12T06:52:49;8.80;99.80
45229;DHT22;30967;51.728;8.682;2022-11-12T06:55:14;8.80;99.80
45229;DHT22;30967;51.728;8.682;2022-11-12T06:57:40;8.80;99.90
45229;DHT22;30967;51.728;8.682;2022-11-12T07:00:06;8.80;99.90
45229;DHT22;30967;51.728;8.682;2022-11-12T07:02:32;8.70;99.90
45229;DHT22;30967;51.728;8.682;2022-11-12T07:04:58;8.70;99.90
45229;DHT22;30967;51.728;8.682;2022-11-12T07:07:24;8.70;99.90
45229;DHT22;30967;51.728;8.682;2022-11-12T07:09:49;8.70;99.90
45229;DHT22;30967;51.728;8.682;2022-11-12T07:12:15;8.70;99.90
45229;DHT22;30967;51.728;8.682;2022-11-12T07:14:40;8.60;99.90
45229;DHT22;30967;51.728;8.682;2022-11-12T07:17:06;8.60;99.90
45229;DHT22;30967;51.728;8.682;2022-11-12T07:19:31;8.60;99.90
45229;DHT22;30967;51.728;8.682;2022-11-12T07:21:57;8.60;99.90
45229;DHT22;30967;51.728;8.682;2022-11-12T07:24:23;8.60;99.90
45229;DHT22;30967;51.728;8.682;2022-11-12T07:26:48;8.60;99.90
45229;DHT22;30967;51.728;8.682;2022-11-12T07:29:14;8.50;99.90
45229;DHT22;30967;51.728;8.682;2022-11-12T07:31:39;8.50;99.90
45229;DHT22;30967;51.728;8.682;2022-11-12T07:34:05;8.50;99.90
45229;DHT22;30967;51.728;8.682;2022-11-12T07:36:30;8.50;99.90
45229;DHT22;30967;51.728;8.682;2022-11-12T07:38:56;8.50;99.90
45229;DHT22;30967;51.728;8.682;2022-11-12T07:41:23;8.50;99.90
45229;DHT22;30967;51.728;8.682;2022-11-12T07:43:51;8.50;99.90
45229;DHT22;30967;51.728;8.682;2022-11-12T07:46:22;8.50;99.90
45229;DHT22;30967;51.728;8.682;2022-11-12T07:48:49;8.40;99.90
45229;DHT22;30967;51.728;8.682;2022-11-12T07:51:20;8.40;99.90
45229;DHT22;30967;51.728;8.682;2022-11-12T07:53:47;8.50;99.90
45229;DHT22;30967;51.728;8.682;2022-11-12T07:56:17;8.50;99.90
45229;DHT22;30967;51.728;8.682;2022-11-12T07:58:43;8.50;99.90
45229;DHT22;30967;51.728;8.682;2022-11-12T08:01:38;8.60;99.90
45229;DHT22;30967;51.728;8.682;2022-11-12T08:04:07;8.60;99.90
45229;DHT22;30967;51.728;8.682;2022-11-12T08:06:34;8.60;99.90
45229;DHT22;30967;51.728;8.682;2022-11-12T08:09:03;8.60;99.90
45229;DHT22;30967;51.728;8.682;2022-11-12T08:11:30;8.70;99.90
45229;DHT22;30967;51.728;8.682;2022-11-12T08:13:56;8.70;99.90
45229;DHT22;30967;51.728;8.682;2022-11-12T08:16:22;8.70;99.90
45229;DHT22;30967;51.728;8.682;2022-11-12T08:18:47;8.70;99.90
45229;DHT22;30967;51.728;8.682;2022-11-12T08:21:15;8.70;99.90
45229;DHT22;30967;51.728;8.682;2022-11-12T08:23:41;8.70;99.90
45229;DHT22;30967;51.728;8.682;2022-11-12T08:26:10;8.70;99.90
45229;DHT22;30967;51.728;8.682;2022-11-12T08:28:36;8.70;99.90
45229;DHT22;30967;51.728;8.682;2022-11-12T08:31:07;8.70;99.90
45229;DHT22;30967;51.728;8.682;2022-11-12T08:33:34;8.70;99.90
45229;DHT22;30967;51.728;8.682;2022-11-12T08:36:04;8.70;99.90
45229;DHT22;30967;51.728;8.682;2022-11-12T08:38:31;8.70;99.90
45229;DHT22;30967;51.728;8.682;2022-11-12T08:41:05;8.70;99.90
45229;DHT22;30967;51.728;8.682;2022-11-12T08:43:32;8.70;99.90
45229;DHT22;30967;51.728;8.682;2022-11-12T08:45:59;8.70;99.90
45229;DHT22;30967;51.728;8.682;2022-11-12T08:48:26;8.80;99.90
45229;DHT22;30967;51.728;8.682;2022-11-12T08:50:52;8.80;99.90
45229;DHT22;30967;51.728;8.682;2022-11-12T08:53:19;8.80;99.90
45229;DHT22;30967;51.728;8.682;2022-11-12T08:55:45;8.80;99.90
45229;DHT22;30967;51.728;8.682;2022-11-12T08:58:11;8.80;99.90
45229;DHT22;30967;51.728;8.682;2022-11-12T09:00:39;8.80;99.90
45229;DHT22;30967;51.728;8.682;2022-11-12T09:03:07;8.90;99.90
45229;DHT22;30967;51.728;8.682;2022-11-12T09:05:37;8.90;99.90
45229;DHT22;30967;51.728;8.682;2022-11-12T09:08:08;8.90;99.90
45229;DHT22;30967;51.728;8.682;2022-11-12T09:10:35;8.80;99.90
45229;DHT22;30967;51.728;8.682;2022-11-12T09:13:00;8.90;99.90
45229;DHT22;30967;51.728;8.682;2022-11-12T09:15:37;8.90;99.90
45229;DHT22;30967;51.728;8.682;2022-11-12T09:18:06;9.00;99.90
45229;DHT22;30967;51.728;8.682;2022-11-12T09:20:40;9.00;99.90
45229;DHT22;30967;51.728;8.682;2022-11-12T09:23:12;9.00;99.90
45229;DHT22;30967;51.728;8.682;2022-11-12T09:25:40;9.00;99.90
45229;DHT22;30967;51.728;8.682;2022-11-12T09:28:14;9.10;99.90
45229;DHT22;30967;51.728;8.682;2022-11-12T09:30:47;9.10;99.90
45229;DHT22;30967;51.728;8.682;2022-11-12T09:33:17;9.10;99.90
45229;DHT22;30967;51.728;8.682;2022-11-12T09:35:45;9.10;99.90
45229;DHT22;30967;51.728;8.682;2022-11-12T09:38:15;9.20;99.90
45229;DHT22;30967;51.728;8.682;2022-11-12T09:43:36;9.30;99.90
45229;DHT22;30967;51.728;8.682;2022-11-12T09:46:33;9.30;99.90
45229;DHT22;30967;51.728;8.682;2022-11-12T09:49:24;9.40;99.90
45229;DHT22;30967;51.728;8.682;2022-11-12T09:52:25;9.50;99.90
45229;DHT22;30967;51.728;8.682;2022-11-12T09:57:52;9.60;99.90
45229;DHT22;30967;51.728;8.682;2022-11-12T10:00:20;9.60;99.90
45229;DHT22;30967;51.728;8.682;2022-11-12T10:08:03;9.70;99.90
45229;DHT22;30967;51.728;8.682;2022-11-12T10:13:11;9.80;99.90
45229;DHT22;30967;51.728;8.682;2022-11-12T10:21:32;10.00;99.90
45229;DHT22;30967;51.728;8.682;2022-11-12T10:24:00;10.00;99.90
45229;DHT22;30967;51.728;8.682;2022-11-12T10:26:27;10.00;99.90
45229;DHT22;30967;51.728;8.682;2022-11-12T10:31:35;10.10;99.90
45229;DHT22;30967;51.728;8.682;2022-11-12T10:36:44;10.30;99.90
45229;DHT22;30967;51.728;8.682;2022-11-12T10:39:30;10.30;99.90
45229;DHT22;30967;51.728;8.682;2022-11-12T10:44:35;10.40;99.90
45229;DHT22;30967;51.728;8.682;2022-11-12T10:50:14;10.60;99.90
45229;DHT22;30967;51.728;8.682;2022-11-12T10:52:55;10.70;99.90
45229;DHT22;30967;51.728;8.682;2022-11-12T10:55:27;10.80;99.90
45229;DHT22;30967;51.728;8.682;2022-11-12T11:00:37;11.00;99.90
45229;DHT22;30967;51.728;8.682;2022-11-12T11:03:20;11.10;99.90
45229;DHT22;30967;51.728;8.682;2022-11-12T11:05:55;11.20;99.90
45229;DHT22;30967;51.728;8.682;2022-11-12T11:08:48;11.20;99.90
45229;DHT22;30967;51.728;8.682;2022-11-12T11:11:26;11.30;99.90
45229;DHT22;30967;51.728;8.682;2022-11-12T11:13:54;11.40;99.90
45229;DHT22;30967;51.728;8.682;2022-11-12T11:16:27;11.50;99.90
45229;DHT22;30967;51.728;8.682;2022-11-12T11:19:04;11.60;99.90
45229;DHT22;30967;51.728;8.682;2022-11-12T11:21:50;11.70;99.90
45229;DHT22;30967;51.728;8.682;2022-11-12T11:27:24;11.80;99.90
45229;DHT22;30967;51.728;8.682;2022-11-12T11:29:56;11.90;99.90
45229;DHT22;30967;51.728;8.682;2022-11-12T11:38:19;12.30;99.90
45229;DHT22;30967;51.728;8.682;2022-11-12T11:40:57;12.30;99.90
45229;DHT22;30967;51.728;8.682;2022-11-12T11:43:43;12.30;99.90
45229;DHT22;30967;51.728;8.682;2022-11-12T11:48:41;12.50;99.90
45229;DHT22;30967;51.728;8.682;2022-11-12T11:51:20;12.50;99.90
45229;DHT22;30967;51.728;8.682;2022-11-12T11:56:55;12.70;99.90
45229;DHT22;30967;51.728;8.682;2022-11-12T11:59:36;12.70;99.90
45229;DHT22;30967;51.728;8.682;2022-11-12T12:05:41;12.90;99.90
45229;DHT22;30967;51.728;8.682;2022-11-12T12:11:11;13.10;99.90
45229;DHT22;30967;51.728;8.682;2022-11-12T12:19:32;13.40;99.90
45229;DHT22;30967;51.728;8.682;2022-11-12T12:22:00;13.50;99.90
45229;DHT22;30967;51.728;8.682;2022-11-12T12:24:36;13.60;99.90
45229;DHT22;30967;51.728;8.682;2022-11-12T12:27:14;13.70;99.90
45229;DHT22;30967;51.728;8.682;2022-11-12T12:30:05;13.80;99.90
45229;DHT22;30967;51.728;8.682;2022-11-12T12:35:50;14.00;99.90
45229;DHT22;30967;51.728;8.682;2022-11-12T12:38:39;14.00;99.90
45229;DHT22;30967;51.728;8.682;2022-11-12T12:43:57;14.10;99.90
45229;DHT22;30967;51.728;8.682;2022-11-12T12:46:30;14.20;99.90
45229;DHT22;30967;51.728;8.682;2022-11-12T12:48:59;14.20;99.90
45229;DHT22;30967;51.728;8.682;2022-11-12T12:51:31;14.20;99.80
45229;DHT22;30967;51.728;8.682;2022-11-12T12:53:58;14.30;99.70
45229;DHT22;30967;51.728;8.682;2022-11-12T12:58:55;14.40;99.30
45229;DHT22;30967;51.728;8.682;2022-11-12T13:04:02;14.50;99.30
45229;DHT22;30967;51.728;8.682;2022-11-12T13:06:32;14.50;99.50
45229;DHT22;30967;51.728;8.682;2022-11-12T13:25:05;14.70;99.90
45229;DHT22;30967;51.728;8.682;2022-11-12T13:43:02;14.90;99.90
45229;DHT22;30967;51.728;8.682;2022-11-12T13:45:28;15.00;99.90
45229;DHT22;30967;51.728;8.682;2022-11-12T13:47:57;15.00;99.90
45229;DHT22;30967;51.728;8.682;2022-11-12T13:50:23;15.00;99.90
45229;DHT22;30967;51.728;8.682;2022-11-12T13:52:50;15.00;99.90
45229;DHT22;30967;51.728;8.682;2022-11-12T13:55:21;15.00;99.90
45229;DHT22;30967;51.728;8.682;2022-11-12T13:57:54;15.00;99.90
45229;DHT22;30967;51.728;8.682;2022-11-12T14:00:21;15.00;99.90
45229;DHT22;30967;51.728;8.682;2022-11-12T14:02:58;15.00;99.90
45229;DHT22;30967;51.728;8.682;2022-11-12T14:05:30;15.00;99.90
45229;DHT22;30967;51.728;8.682;2022-11-12T14:11:06;15.00;99.90
45229;DHT22;30967;51.728;8.682;2022-11-12T14:14:28;15.00;99.90
45229;DHT22;30967;51.728;8.682;2022-11-12T14:22:24;15.00;99.90
45229;DHT22;30967;51.728;8.682;2022-11-12T14:24:58;15.10;99.90
45229;DHT22;30967;51.728;8.682;2022-11-12T14:30:32;15.10;99.90
45229;DHT22;30967;51.728;8.682;2022-11-12T14:33:08;15.10;99.90
45229;DHT22;30967;51.728;8.682;2022-11-12T14:35:38;15.10;99.90
45229;DHT22;30967;51.728;8.682;2022-11-12T14:38:19;15.10;99.90
45229;DHT22;30967;51.728;8.682;2022-11-12T14:40:51;15.10;99.90
45229;DHT22;30967;51.728;8.682;2022-11-12T14:43:28;15.10;99.90
45229;DHT22;30967;51.728;8.682;2022-11-12T14:45:57;15.10;99.90
45229;DHT22;30967;51.728;8.682;2022-11-12T14:48:24;15.10;99.90
45229;DHT22;30967;51.728;8.682;2022-11-12T14:50:55;15.10;99.90
45229;DHT22;30967;51.728;8.682;2022-11-12T14:53:27;15.10;99.90
45229;DHT22;30967;51.728;8.682;2022-11-12T14:55:56;15.10;99.90
45229;DHT22;30967;51.728;8.682;2022-11-12T14:58:23;15.10;99.90
45229;DHT22;30967;51.728;8.682;2022-11-12T15:00:52;15.10;99.90
45229;DHT22;30967;51.728;8.682;2022-11-12T15:03:29;15.00;99.90
45229;DHT22;30967;51.728;8.682;2022-11-12T15:08:37;15.00;99.90
45229;DHT22;30967;51.728;8.682;2022-11-12T15:11:25;15.00;99.90
45229;DHT22;30967;51.728;8.682;2022-11-12T15:13:54;15.00;99.90
45229;DHT22;30967;51.728;8.682;2022-11-12T15:16:22;15.00;99.90
45229;DHT22;30967;51.728;8.682;2022-11-12T15:21:54;14.90;99.90
45229;DHT22;30967;51.728;8.682;2022-11-12T15:24:24;14.90;99.90
45229;DHT22;30967;51.728;8.682;2022-11-12T15:26:53;14.90;99.90
45229;DHT22;30967;51.728;8.682;2022-11-12T15:29:38;14.90;99.90
45229;DHT22;30967;51.728;8.682;2022-11-12T15:37:12;14.70;99.90
45229;DHT22;30967;51.728;8.682;2022-11-12T15:39:49;14.70;99.90
45229;DHT22;30967;51.728;8.682;2022-11-12T15:45:07;14.60;99.90
45229;DHT22;30967;51.728;8.682;2022-11-12T15:47:34;14.60;99.90
45229;DHT22;30967;51.728;8.682;2022-11-12T15:49:59;14.50;99.90
45229;DHT22;30967;51.728;8.682;2022-11-12T15:52:31;14.50;99.90
45229;DHT22;30967;51.728;8.682;2022-11-12T15:55:05;14.50;99.90
45229;DHT22;30967;51.728;8.682;2022-11-12T15:57:35;14.40;99.90
45229;DHT22;30967;51.728;8.682;2022-11-12T16:00:21;14.40;99.90
45229;DHT22;30967;51.728;8.682;2022-11-12T16:03:20;14.40;99.90
45229;DHT22;30967;51.728;8.682;2022-11-12T16:05:45;14.30;99.90
45229;DHT22;30967;51.728;8.682;2022-11-12T16:08:11;14.30;99.90
45229;DHT22;30967;51.728;8.682;2022-11-12T16:10:38;14.20;99.90
45229;DHT22;30967;51.728;8.682;2022-11-12T16:13:06;14.20;99.90
45229;DHT22;30967;51.728;8.682;2022-11-12T16:15:35;14.20;99.90
45229;DHT22;30967;51.728;8.682;2022-11-12T16:18:01;14.10;99.90
45229;DHT22;30967;51.728;8.682;2022-11-12T16:20:33;14.00;99.90
45229;DHT22;30967;51.728;8.682;2022-11-12T16:22:58;14.00;99.90
45229;DHT22;30967;51.728;8.682;2022-11-12T16:25:28;13.90;99.90
45229;DHT22;30967;51.728;8.682;2022-11-12T16:27:55;13.90;99.90
45229;DHT22;30967;51.728;8.682;2022-11-12T16:30:25;13.80;99.90
45229;DHT22;30967;51.728;8.682;2022-11-12T16:32:51;13.80;99.90
45229;DHT22;30967;51.728;8.682;2022-11-12T16:35:17;13.70;99.90
45229;DHT22;30967;51.728;8.682;2022-11-12T16:37:44;13.70;99.90
45229;DHT22;30967;51.728;8.682;2022-11-12T16:40:19;13.60;99.90
45229;DHT22;30967;51.728;8.682;2022-11-12T16:42:45;13.60;99.90
45229;DHT22;30967;51.728;8.682;2022-11-12T16:45:16;13.60;99.90
45229;DHT22;30967;51.728;8.682;2022-11-12T16:47:44;13.50;99.90
45229;DHT22;30967;51.728;8.682;2022-11-12T16:50:16;13.50;99.90
45229;DHT22;30967;51.728;8.682;2022-11-12T16:52:42;13.50;99.90
45229;DHT22;30967;51.728;8.682;2022-11-12T16:55:09;13.40;99.90
45229;DHT22;30967;51.728;8.682;2022-11-12T16:57:36;13.40;99.90
45229;DHT22;30967;51.728;8.682;2022-11-12T17:00:12;13.40;99.90
45229;DHT22;30967;51.728;8.682;2022-11-12T17:02:43;13.30;99.90
45229;DHT22;30967;51.728;8.682;2022-11-12T17:05:14;13.30;99.90
45229;DHT22;30967;51.728;8.682;2022-11-12T17:07:39;13.30;99.90
45229;DHT22;30967;51.728;8.682;2022-11-12T17:10:05;13.20;99.90
45229;DHT22;30967;51.728;8.682;2022-11-12T17:12:31;13.20;99.90
45229;DHT22;30967;51.728;8.682;2022-11-12T17:14:57;13.20;99.90
45229;DHT22;30967;51.728;8.682;2022-11-12T17:17:22;13.10;99.90
45229;DHT22;30967;51.728;8.682;2022-11-12T17:19:48;13.10;99.90
45229;DHT22;30967;51.728;8.682;2022-11-12T17:22:14;13.00;99.90
45229;DHT22;30967;51.728;8.682;2022-11-12T17:24:40;13.00;99.90
45229;DHT22;30967;51.728;8.682;2022-11-12T17:27:06;13.00;99.90
45229;DHT22;30967;51.728;8.682;2022-11-12T17:29:32;12.90;99.90
45229;DHT22;30967;51.728;8.682;2022-11-12T17:31:57;12.90;99.90
45229;DHT22;30967;51.728;8.682;2022-11-12T17:34:23;12.80;99.90
45229;DHT22;30967;51.728;8.682;2022-11-12T17:36:49;12.80;99.90
45229;DHT22;30967;51.728;8.682;2022-11-12T17:39:14;12.80;99.90
45229;DHT22;30967;51.728;8.682;2022-11-12T17:41:40;12.70;99.90
45229;DHT22;30967;51.728;8.682;2022-11-12T17:44:06;12.70;99.90
45229;DHT22;30967;51.728;8.682;2022-11-12T17:46:31;12.60;99.90
45229;DHT22;30967;51.728;8.682;2022-11-12T17:48:58;12.70;99.90
45229;DHT22;30967;51.728;8.682;2022-11-12T17:51:25;12.60;99.90
45229;DHT22;30967;51.728;8.682;2022-11-12T17:53:51;12.60;99.90
45229;DHT22;30967;51.728;8.682;2022-11-12T17:56:20;12.60;99.90
45229;DHT22;30967;51.728;8.682;2022-11-12T17:58:48;12.60;99.90
45229;DHT22;30967;51.728;8.682;2022-11-12T18:01:23;12.50;99.90
45229;DHT22;30967;51.728;8.682;2022-11-12T18:03:50;12.50;99.90
45229;DHT22;30967;51.728;8.682;2022-11-12T18:06:19;12.50;99.90
45229;DHT22;30967;51.728;8.682;2022-11-12T18:08:46;12.40;99.90
45229;DHT22;30967;51.728;8.682;2022-11-12T18:11:13;12.40;99.90